createdAt,value
2022-11-24T00:00:14.629Z,76.06
2022-11-24T00:02:42.127Z,75.76
2022-11-24T00:05:09.360Z,76.10
2022-11-24T00:07:36.407Z,76.64
2022-11-24T00:10:03.957Z,77.06
2022-11-24T00:12:31.006Z,77.10
2022-11-24T00:14:58.089Z,77.67
2022-11-24T00:17:24.995Z,78.88
2022-11-24T00:19:52.054Z,77.94
2022-11-24T00:22:19.186Z,78.05
2022-11-24T00:24:46.205Z,78.12
2022-11-24T00:27:13.153Z,78.65
2022-11-24T00:29:40.185Z,78.74
2022-11-24T00:32:07.289Z,78.18
2022-11-24T00:34:34.760Z,78.68
2022-11-24T00:37:02.029Z,78.87
2022-11-24T00:39:29.021Z,79.42
2022-11-24T00:41:56.070Z,79.70
2022-11-24T00:44:23.065Z,78.96
2022-11-24T00:46:50.378Z,79.01
2022-11-24T00:49:17.490Z,79.01
2022-11-24T00:51:44.633Z,78.55
2022-11-24T00:54:11.548Z,77.61
2022-11-24T00:56:41.710Z,79.19
2022-11-24T00:59:08.684Z,78.32
2022-11-24T01:01:39.397Z,78.63
2022-11-24T01:04:06.661Z,78.32
2022-11-24T01:06:35.588Z,78.32
2022-11-24T01:09:02.796Z,78.29
2022-11-24T01:11:37.489Z,77.70
2022-11-24T01:14:07.422Z,77.77
2022-11-24T01:16:35.728Z,77.89
2022-11-24T01:19:04.273Z,76.82
2022-11-24T01:21:31.189Z,77.03
2022-11-24T01:23:58.120Z,77.27
2022-11-24T01:26:25.337Z,76.60
2022-11-24T01:28:54.190Z,76.69
2022-11-24T01:31:21.275Z,77.25
2022-11-24T01:33:48.247Z,77.69
2022-11-24T01:36:15.359Z,77.45
2022-11-24T01:38:42.276Z,78.10
2022-11-24T01:41:14.803Z,78.17
2022-11-24T01:43:42.809Z,78.28
2022-11-24T01:46:13.285Z,78.61
2022-11-24T01:48:44.190Z,78.24
2022-11-24T01:51:14.010Z,78.71
2022-11-24T01:53:44.714Z,78.68
2022-11-24T01:56:13.334Z,79.43
2022-11-24T01:58:50.937Z,79.17
2022-11-24T02:01:18.336Z,78.67
2022-11-24T02:04:24.627Z,79.36
2022-11-24T02:06:52.770Z,79.81
2022-11-24T02:09:20.193Z,79.35
2022-11-24T02:11:47.657Z,79.81
2022-11-24T02:14:18.624Z,80.05
2022-11-24T02:16:49.018Z,80.85
2022-11-24T02:19:23.255Z,80.70
2022-11-24T02:21:52.603Z,81.36
2022-11-24T02:24:25.437Z,81.18
2022-11-24T02:26:52.869Z,80.46
2022-11-24T02:29:21.408Z,81.07
2022-11-24T02:31:50.563Z,81.44
2022-11-24T02:34:17.613Z,81.75
2022-11-24T02:36:45.438Z,82.02
2022-11-24T02:39:13.362Z,80.87
2022-11-24T02:41:43.480Z,80.63
2022-11-24T02:44:14.962Z,80.71
2022-11-24T02:46:42.111Z,81.72
2022-11-24T02:49:09.203Z,81.00
2022-11-24T02:51:36.167Z,81.66
2022-11-24T03:01:22.607Z,80.55
2022-11-24T03:03:52.929Z,79.91
2022-11-24T03:06:24.144Z,80.38
2022-11-24T03:08:51.466Z,80.23
2022-11-24T03:11:18.425Z,79.82
2022-11-24T03:13:45.529Z,79.91
2022-11-24T03:16:12.919Z,80.21
2022-11-24T03:18:40.064Z,80.06
2022-11-24T03:21:07.899Z,80.23
2022-11-24T03:23:35.057Z,81.46
2022-11-24T03:26:07.706Z,80.65
2022-11-24T03:28:34.745Z,80.95
2022-11-24T03:31:02.667Z,81.09
2022-11-24T03:33:29.956Z,80.75
2022-11-24T03:35:57.318Z,80.88
2022-11-24T03:48:21.528Z,80.95
2022-11-24T03:50:51.865Z,82.20
2022-11-24T03:53:19.181Z,81.78
2022-11-24T03:55:46.175Z,81.49
2022-11-24T03:58:13.280Z,80.61
2022-11-24T04:00:40.349Z,81.20
2022-11-24T04:03:07.614Z,80.39
2022-11-24T04:05:36.725Z,81.00
2022-11-24T04:08:05.612Z,80.69
2022-11-24T04:10:34.033Z,81.03
2022-11-24T04:16:19.605Z,81.00
2022-11-24T04:18:46.787Z,80.75
2022-11-24T04:21:13.825Z,81.24
2022-11-24T04:23:40.765Z,81.37
2022-11-24T04:26:08.301Z,80.69
2022-11-24T04:28:38.200Z,80.65
2022-11-24T04:31:09.097Z,81.21
2022-11-24T04:33:36.337Z,81.30
2022-11-24T04:36:03.403Z,80.61
2022-11-24T04:39:22.784Z,81.07
2022-11-24T04:41:17.157Z,81.10
2022-11-24T04:43:44.026Z,80.62
2022-11-24T04:46:11.875Z,81.16
2022-11-24T04:48:40.375Z,81.80
2022-11-24T04:51:07.462Z,81.14
2022-11-24T04:53:34.660Z,81.56
2022-11-24T04:56:08.853Z,81.24
2022-11-24T04:58:35.893Z,81.31
2022-11-24T05:01:06.790Z,81.23
2022-11-24T05:03:34.459Z,81.22
2022-11-24T05:06:03.113Z,80.48
2022-11-24T05:08:30.164Z,81.74
2022-11-24T05:10:57.075Z,81.10
2022-11-24T05:13:27.035Z,81.54
2022-11-24T05:15:53.996Z,81.57
2022-11-24T05:18:30.248Z,82.06
2022-11-24T05:20:58.289Z,82.06
2022-11-24T05:23:26.039Z,81.94
2022-11-24T05:25:53.346Z,82.30
2022-11-24T05:28:20.417Z,82.49
2022-11-24T05:30:47.521Z,82.33
2022-11-24T05:33:19.345Z,82.10
2022-11-24T05:35:47.630Z,81.92
2022-11-24T05:38:20.326Z,81.81
2022-11-24T05:40:50.368Z,81.83
2022-11-24T05:43:19.028Z,82.23
2022-11-24T05:45:45.930Z,81.71
2022-11-24T05:48:14.177Z,81.25
2022-11-24T05:50:43.501Z,81.33
2022-11-24T05:53:12.185Z,81.31
2022-11-24T05:55:40.219Z,81.29
2022-11-24T05:58:08.200Z,81.32
2022-11-24T06:01:22.119Z,81.91
2022-11-24T06:03:49.081Z,80.62
2022-11-24T06:06:16.017Z,81.23
2022-11-24T06:08:43.009Z,81.18
2022-11-24T06:11:13.172Z,80.17
2022-11-24T06:14:22.933Z,79.93
2022-11-24T06:16:50.773Z,80.08
2022-11-24T06:19:17.857Z,80.13
2022-11-24T06:21:44.901Z,79.55
2022-11-24T06:24:11.900Z,79.95
2022-11-24T06:27:21.565Z,80.34
2022-11-24T06:29:48.581Z,80.18
2022-11-24T06:32:18.782Z,81.00
2022-11-24T06:34:46.222Z,81.07
2022-11-24T06:37:13.297Z,79.76
2022-11-24T06:39:40.435Z,79.79
2022-11-24T06:42:07.303Z,80.07
2022-11-24T06:44:34.609Z,81.43
2022-11-24T06:47:02.185Z,81.15
2022-11-24T06:49:29.311Z,80.51
2022-11-24T06:55:14.869Z,80.36
2022-11-24T06:57:41.758Z,81.52
2022-11-24T07:00:11.430Z,81.49
2022-11-24T07:02:45.438Z,81.78
2022-11-24T07:05:13.088Z,81.62
2022-11-24T07:08:23.370Z,81.71
2022-11-24T07:10:50.409Z,82.32
2022-11-24T07:13:17.332Z,81.78
2022-11-24T07:15:44.801Z,81.71
2022-11-24T07:18:11.751Z,81.65
2022-11-24T07:20:38.826Z,81.38
2022-11-24T07:23:07.206Z,80.71
2022-11-24T07:25:37.169Z,80.82
2022-11-24T07:28:04.961Z,81.15
2022-11-24T07:30:32.534Z,81.56
2022-11-24T07:33:00.372Z,81.01
2022-11-24T07:35:27.849Z,81.81
2022-11-24T07:37:56.026Z,81.99
2022-11-24T07:40:23.816Z,80.82
2022-11-24T07:42:52.181Z,80.94
2022-11-24T07:45:19.424Z,81.44
2022-11-24T07:47:51.061Z,81.07
2022-11-24T07:50:18.241Z,80.75
2022-11-24T07:52:45.539Z,80.72
2022-11-24T07:55:12.550Z,80.25
2022-11-24T07:57:40.069Z,79.98
2022-11-24T08:00:07.603Z,80.15
2022-11-24T08:02:34.740Z,81.12
2022-11-24T08:05:01.785Z,80.92
2022-11-24T08:07:29.883Z,80.12
2022-11-24T08:09:57.279Z,80.18
2022-11-24T08:12:24.649Z,80.16
2022-11-24T08:14:51.791Z,79.86
2022-11-24T08:17:19.180Z,79.90
2022-11-24T08:19:46.341Z,80.05
2022-11-24T08:22:13.924Z,80.90
2022-11-24T08:24:46.799Z,80.14
2022-11-24T08:27:14.548Z,80.56
2022-11-24T08:29:41.749Z,80.58
2022-11-24T08:32:10.260Z,80.99
2022-11-24T08:34:40.586Z,81.53
2022-11-24T08:37:07.945Z,80.79
2022-11-24T08:39:35.078Z,80.73
2022-11-24T08:42:02.481Z,80.89
2022-11-24T08:47:51.522Z,81.00
2022-11-24T08:50:18.734Z,81.50
2022-11-24T08:52:45.917Z,81.58
2022-11-24T08:55:13.422Z,81.83
2022-11-24T08:57:40.542Z,82.13
2022-11-24T09:00:08.067Z,82.61
2022-11-24T09:02:35.508Z,83.20
2022-11-24T09:05:03.452Z,82.53
2022-11-24T09:07:30.867Z,82.34
2022-11-24T09:09:58.055Z,82.36
2022-11-24T09:12:25.214Z,82.29
2022-11-24T09:14:52.489Z,82.43
2022-11-24T09:17:21.765Z,81.80
2022-11-24T09:19:48.803Z,81.87
2022-11-24T09:22:15.869Z,82.29
2022-11-24T09:24:42.985Z,82.39
2022-11-24T09:27:10.162Z,82.48
2022-11-24T09:29:37.559Z,82.28
2022-11-24T09:32:07.004Z,82.22
2022-11-24T09:34:35.338Z,81.63
2022-11-24T09:37:02.610Z,81.84
2022-11-24T09:39:29.752Z,81.28
2022-11-24T09:42:00.062Z,81.65
2022-11-24T09:44:30.648Z,81.77
2022-11-24T09:50:19.488Z,81.78
2022-11-24T09:52:50.065Z,81.99
2022-11-24T09:55:23.828Z,81.85
2022-11-24T09:57:55.389Z,82.21
2022-11-24T10:00:22.854Z,82.35
2022-11-24T10:02:50.721Z,82.07
2022-11-24T10:05:18.806Z,82.46
2022-11-24T10:07:55.395Z,82.45
2022-11-24T10:10:25.653Z,82.81
2022-11-24T10:12:55.941Z,82.88
2022-11-24T10:18:43.094Z,83.03
2022-11-24T10:21:10.582Z,83.37
2022-11-24T10:23:41.750Z,83.50
2022-11-24T10:26:13.561Z,83.86
2022-11-24T10:28:45.408Z,84.20
2022-11-24T10:31:18.063Z,83.88
2022-11-24T10:33:45.600Z,84.68
2022-11-24T10:36:17.533Z,85.21
2022-11-24T10:38:58.445Z,85.48
2022-11-24T10:44:47.238Z,85.96
2022-11-24T10:47:17.510Z,86.37
2022-11-24T10:49:47.010Z,86.68
2022-11-24T10:52:16.042Z,86.77
2022-11-24T10:54:46.885Z,86.88
2022-11-24T10:57:27.305Z,86.68
2022-11-24T10:59:54.631Z,86.72
2022-11-24T11:02:26.952Z,87.15
2022-11-24T11:04:55.595Z,86.94
2022-11-24T11:07:25.622Z,86.85
2022-11-24T11:10:13.956Z,86.50
2022-11-24T11:12:45.125Z,86.68
2022-11-24T11:15:24.935Z,86.92
2022-11-24T11:17:55.079Z,86.70
2022-11-24T11:20:28.188Z,86.35
2022-11-24T11:22:56.982Z,86.05
2022-11-24T11:25:27.961Z,85.75
2022-11-24T11:28:17.667Z,85.06
2022-11-24T11:34:03.698Z,84.34
2022-11-24T11:36:33.589Z,83.54
2022-11-24T11:39:00.845Z,83.64
2022-11-24T11:41:31.861Z,82.99
2022-11-24T11:44:11.127Z,83.13
2022-11-24T11:46:43.844Z,83.28
2022-11-24T11:49:15.463Z,83.41
2022-11-24T11:51:58.738Z,83.28
2022-11-24T11:54:49.594Z,83.31
2022-11-24T11:57:25.490Z,83.36
2022-11-24T11:59:55.750Z,83.29
2022-11-24T12:02:23.817Z,83.29
2022-11-24T12:04:54.413Z,82.98
2022-11-24T12:07:24.536Z,82.09
2022-11-24T12:09:52.954Z,81.71
2022-11-24T12:12:23.517Z,81.86
2022-11-24T12:14:50.960Z,81.04
2022-11-24T12:17:28.794Z,81.01
2022-11-24T12:20:02.943Z,81.06
2022-11-24T12:22:33.584Z,80.04
2022-11-24T12:25:03.824Z,80.13
2022-11-24T12:27:31.403Z,79.52
2022-11-24T12:30:01.603Z,79.50
2022-11-24T12:32:31.821Z,79.50
2022-11-24T12:38:21.154Z,79.62
2022-11-24T12:40:51.980Z,79.16
2022-11-24T12:43:20.944Z,79.42
2022-11-24T12:45:51.349Z,79.91
2022-11-24T12:48:19.248Z,79.65
2022-11-24T12:50:46.543Z,79.50
2022-11-24T12:53:17.454Z,79.58
2022-11-24T12:55:47.809Z,80.19
2022-11-24T12:58:18.047Z,79.82
2022-11-24T13:00:48.538Z,79.47
2022-11-24T13:06:36.342Z,79.71
2022-11-24T13:09:06.744Z,80.26
2022-11-24T13:11:37.559Z,80.04
2022-11-24T13:14:07.972Z,80.06
2022-11-24T13:16:38.763Z,80.55
2022-11-24T13:19:18.731Z,81.48
2022-11-24T13:21:50.661Z,81.88
2022-11-24T13:24:19.717Z,81.41
2022-11-24T13:26:49.962Z,82.28
2022-11-24T13:29:25.179Z,81.18
2022-11-24T13:31:52.954Z,80.24
2022-11-24T13:34:23.321Z,79.66
2022-11-24T13:36:54.189Z,79.54
2022-11-24T13:39:22.341Z,78.80
2022-11-24T13:41:49.839Z,78.97
2022-11-24T13:44:22.102Z,79.34
2022-11-24T13:46:57.618Z,79.62
2022-11-24T13:49:32.166Z,78.99
2022-11-24T13:52:19.083Z,79.77
2022-11-24T13:54:46.354Z,80.74
2022-11-24T13:57:16.508Z,81.09
2022-11-24T14:03:07.824Z,82.01
2022-11-24T14:05:38.015Z,82.11
2022-11-24T14:08:06.656Z,82.29
2022-11-24T14:10:36.923Z,82.46
2022-11-24T14:13:07.482Z,83.30
2022-11-24T14:16:24.416Z,83.40
2022-11-24T14:18:52.996Z,83.30
2022-11-24T14:21:21.720Z,84.05
2022-11-24T14:23:53.249Z,84.24
2022-11-24T14:26:23.578Z,83.75
2022-11-24T14:28:52.186Z,83.27
2022-11-24T14:31:21.812Z,83.34
2022-11-24T14:33:52.619Z,83.11
2022-11-24T14:36:22.788Z,83.01
2022-11-24T14:38:50.141Z,83.31
2022-11-24T14:41:26.058Z,83.63
2022-11-24T14:43:56.609Z,83.83
2022-11-24T14:46:24.257Z,83.65
2022-11-24T14:48:53.689Z,83.15
2022-11-24T14:51:23.601Z,83.19
2022-11-24T14:53:53.739Z,83.58
2022-11-24T14:56:24.687Z,83.69
2022-11-24T14:58:52.389Z,83.54
2022-11-24T15:01:21.319Z,83.73
2022-11-24T15:04:11.660Z,83.42
2022-11-24T15:10:01.874Z,83.88
2022-11-24T15:12:29.814Z,83.96
2022-11-24T15:15:01.513Z,84.24
2022-11-24T15:17:29.964Z,85.31
2022-11-24T15:20:00.588Z,86.52
2022-11-24T15:22:30.850Z,86.76
2022-11-24T15:24:58.266Z,87.30
2022-11-24T15:27:25.489Z,88.07
2022-11-24T15:29:52.844Z,86.96
2022-11-24T15:32:20.525Z,87.11
2022-11-24T15:34:48.818Z,87.41
2022-11-24T15:37:16.453Z,87.63
2022-11-24T15:39:44.601Z,87.83
2022-11-24T15:42:12.757Z,88.05
2022-11-24T15:44:42.586Z,87.99
2022-11-24T15:50:31.244Z,87.39
2022-11-24T15:52:59.169Z,87.74
2022-11-24T15:55:26.773Z,87.30
2022-11-24T15:57:55.655Z,86.81
2022-11-24T16:00:24.454Z,86.76
2022-11-24T16:02:53.120Z,86.99
2022-11-24T16:05:21.730Z,86.92
2022-11-24T16:07:50.047Z,86.92
2022-11-24T16:10:22.855Z,86.24
2022-11-24T16:12:55.255Z,84.59
2022-11-24T16:15:23.335Z,84.85
2022-11-24T16:17:51.340Z,84.46
2022-11-24T16:20:19.244Z,84.26
2022-11-24T16:22:47.692Z,83.49
2022-11-24T16:25:15.704Z,83.81
2022-11-24T16:27:44.164Z,84.22
2022-11-24T16:30:13.981Z,84.18
2022-11-24T16:32:42.125Z,84.68
2022-11-24T16:35:10.442Z,84.92
2022-11-24T16:37:39.340Z,84.36
2022-11-24T16:40:07.850Z,84.42
2022-11-24T16:42:36.645Z,83.65
2022-11-24T16:45:05.244Z,83.52
2022-11-24T16:47:33.403Z,83.83
2022-11-24T16:50:01.547Z,83.68
2022-11-24T16:52:29.465Z,83.51
2022-11-24T16:54:57.371Z,83.72
2022-11-24T16:57:27.871Z,84.42
2022-11-24T16:59:56.470Z,84.94
2022-11-24T17:02:23.529Z,85.28
2022-11-24T17:04:53.879Z,85.33
2022-11-24T17:07:22.587Z,85.41
2022-11-24T17:09:50.870Z,85.81
2022-11-24T17:15:45.266Z,85.71
2022-11-24T17:18:30.931Z,86.39
2022-11-24T17:21:02.086Z,84.90
2022-11-24T17:23:34.996Z,84.93
2022-11-24T17:26:07.914Z,84.18
2022-11-24T17:31:56.388Z,83.07
2022-11-24T17:34:25.124Z,82.39
2022-11-24T17:36:56.635Z,83.84
2022-11-24T17:39:25.783Z,84.48
2022-11-24T17:41:54.057Z,83.82
2022-11-24T17:44:21.933Z,84.27
2022-11-24T17:46:49.825Z,84.69
2022-11-24T17:52:38.827Z,85.68
2022-11-24T17:55:10.728Z,86.17
2022-11-24T17:57:43.239Z,86.35
2022-11-24T18:00:13.383Z,87.07
2022-11-24T18:02:44.716Z,87.68
2022-11-24T18:08:00.008Z,88.46
2022-11-24T18:10:33.529Z,88.61
2022-11-24T18:13:04.185Z,88.78
2022-11-24T18:15:35.344Z,88.54
2022-11-24T18:18:05.084Z,87.43
2022-11-24T18:20:34.081Z,87.28
2022-11-24T18:23:06.169Z,87.11
2022-11-24T18:25:38.750Z,87.35
2022-11-24T18:34:43.360Z,87.02
2022-11-24T18:37:17.107Z,87.85
2022-11-24T18:39:44.806Z,87.51
2022-11-24T18:42:12.713Z,86.75
2022-11-24T18:44:40.620Z,87.41
2022-11-24T18:47:08.704Z,87.41
2022-11-24T18:49:36.728Z,87.44
2022-11-24T18:52:04.134Z,87.33
2022-11-24T18:54:34.879Z,86.81
2022-11-24T18:57:03.655Z,86.00
2022-11-24T19:02:54.509Z,85.43
2022-11-24T19:05:24.515Z,85.91
2022-11-24T19:07:52.312Z,85.26
2022-11-24T19:10:20.149Z,85.33
2022-11-24T19:12:48.147Z,85.50
2022-11-24T19:15:15.754Z,85.63
2022-11-24T19:17:47.061Z,85.32
2022-11-24T19:20:14.677Z,84.70
2022-11-24T19:22:42.980Z,84.76
2022-11-24T19:25:11.338Z,84.57
2022-11-24T19:27:38.941Z,84.65
2022-11-24T19:30:08.459Z,84.44
2022-11-24T19:32:36.454Z,84.50
2022-11-24T19:35:03.854Z,84.46
2022-11-24T19:37:31.423Z,84.25
2022-11-24T19:39:59.043Z,83.57
2022-11-24T19:42:26.680Z,83.79
2022-11-24T19:44:56.588Z,84.17
2022-11-24T19:47:24.345Z,84.30
2022-11-24T19:49:52.064Z,84.85
2022-11-24T19:52:19.481Z,84.75
2022-11-24T19:54:47.984Z,84.69
2022-11-24T19:57:15.178Z,85.00
2022-11-24T19:59:44.486Z,85.90
2022-11-24T20:05:35.641Z,84.81
2022-11-24T20:08:02.985Z,85.21
2022-11-24T20:10:30.191Z,84.59
2022-11-24T20:12:57.861Z,84.60
2022-11-24T20:15:25.264Z,84.31
2022-11-24T20:17:53.813Z,84.39
2022-11-24T20:20:21.403Z,83.60
2022-11-24T20:22:48.857Z,83.20
2022-11-24T20:25:15.978Z,82.96
2022-11-24T20:27:57.570Z,83.15
2022-11-24T20:30:25.677Z,83.50
2022-11-24T20:32:56.140Z,83.45
2022-11-24T20:35:23.818Z,83.29
2022-11-24T20:37:51.172Z,83.27
2022-11-24T20:40:21.933Z,83.71
2022-11-24T20:42:51.509Z,84.08
2022-11-24T20:45:18.854Z,84.77
2022-11-24T20:47:46.580Z,85.71
2022-11-24T20:50:14.504Z,86.02
2022-11-24T20:52:45.957Z,86.10
2022-11-24T20:55:17.984Z,85.27
2022-11-24T20:57:45.414Z,85.31
2022-11-24T21:00:13.632Z,84.98
2022-11-24T21:02:41.248Z,85.20
2022-11-24T21:11:45.384Z,84.13
2022-11-24T21:14:13.030Z,84.18
2022-11-24T21:16:45.297Z,84.14
2022-11-24T21:19:20.261Z,84.38
2022-11-24T21:21:48.108Z,84.95
2022-11-24T21:24:24.856Z,84.48
2022-11-24T21:26:53.213Z,84.73
2022-11-24T21:29:28.950Z,84.34
2022-11-24T21:32:08.431Z,83.92
2022-11-24T21:34:48.133Z,84.38
2022-11-24T21:37:17.124Z,83.49
2022-11-24T21:43:10.055Z,83.34
2022-11-24T21:45:46.923Z,83.25
2022-11-24T21:49:05.506Z,82.99
2022-11-24T21:51:26.419Z,83.19
2022-11-24T21:53:57.736Z,82.58
2022-11-24T21:56:41.215Z,83.12
2022-11-24T21:59:08.876Z,82.64
2022-11-24T22:01:39.020Z,82.40
2022-11-24T22:04:11.081Z,82.27
2022-11-24T22:06:38.730Z,82.45
2022-11-24T22:09:06.069Z,82.05
2022-11-24T22:14:51.810Z,82.37
2022-11-24T22:17:19.084Z,81.98
2022-11-24T22:19:49.289Z,81.97
2022-11-24T22:22:16.836Z,82.10
2022-11-24T22:24:47.413Z,82.03
2022-11-24T22:27:20.831Z,81.72
2022-11-24T22:29:53.881Z,81.86
2022-11-24T22:32:21.733Z,82.24
2022-11-24T22:34:49.198Z,82.19
2022-11-24T22:37:16.360Z,81.63
2022-11-24T22:39:43.418Z,81.09
2022-11-24T22:42:10.984Z,81.47
2022-11-24T22:44:38.574Z,81.13
2022-11-24T22:47:08.953Z,81.17
2022-11-24T22:49:36.833Z,81.31
2022-11-24T22:52:04.399Z,82.12
2022-11-24T22:54:31.719Z,81.90
2022-11-24T22:56:59.601Z,81.90
2022-11-24T22:59:30.152Z,81.05
2022-11-24T23:01:57.334Z,80.81
2022-11-24T23:04:24.741Z,81.56
2022-11-24T23:06:52.130Z,81.90
2022-11-24T23:09:19.348Z,81.45
2022-11-24T23:11:46.500Z,81.92
2022-11-24T23:14:15.514Z,81.71
2022-11-24T23:16:43.498Z,81.66
2022-11-24T23:19:11.117Z,82.36
2022-11-24T23:21:39.723Z,81.11
2022-11-24T23:24:07.605Z,81.38
2022-11-24T23:26:36.983Z,81.79
2022-11-24T23:29:05.647Z,81.46
2022-11-24T23:31:34.186Z,81.14
2022-11-24T23:34:02.745Z,81.73
2022-11-24T23:36:30.540Z,80.96
2022-11-24T23:39:02.029Z,81.09
2022-11-24T23:41:30.950Z,80.49
2022-11-24T23:47:17.580Z,80.59
2022-11-24T23:49:44.920Z,82.14
2022-11-24T23:52:12.025Z,81.28
2022-11-24T23:54:41.433Z,81.47
2022-11-24T23:57:08.640Z,81.11
2022-11-24T23:59:35.780Z,81.10
